sensor_id;sensor_type;location;lat;lon;timestamp;P1;durP1;ratioP1;P2;durP2;ratioP2
1078;SDS011;528;47.872;11.478;2022-08-14T00:02:12;6.90;;;6.30;;
1078;SDS011;528;47.872;11.478;2022-08-14T00:04:39;7.13;;;6.53;;
1078;SDS011;528;47.872;11.478;2022-08-14T00:07:08;7.27;;;6.67;;
1078;SDS011;528;47.872;11.478;2022-08-14T00:09:36;7.10;;;6.50;;
1078;SDS011;528;47.872;11.478;2022-08-14T00:12:04;8.10;;;7.30;;
1078;SDS011;528;47.872;11.478;2022-08-14T00:14:32;7.00;;;6.50;;
1078;SDS011;528;47.872;11.478;2022-08-14T00:16:59;7.60;;;6.97;;
1078;SDS011;528;47.872;11.478;2022-08-14T00:19:27;8.37;;;7.63;;
1078;SDS011;528;47.872;11.478;2022-08-14T00:21:54;7.23;;;6.63;;
1078;SDS011;528;47.872;11.478;2022-08-14T00:24:23;6.40;;;6.00;;
1078;SDS011;528;47.872;11.478;2022-08-14T00:26:50;7.20;;;6.60;;
1078;SDS011;528;47.872;11.478;2022-08-14T00:29:18;7.40;;;6.70;;
1078;SDS011;528;47.872;11.478;2022-08-14T00:31:45;7.67;;;7.07;;
1078;SDS011;528;47.872;11.478;2022-08-14T00:34:13;7.80;;;7.20;;
1078;SDS011;528;47.872;11.478;2022-08-14T00:36:40;7.70;;;7.10;;
1078;SDS011;528;47.872;11.478;2022-08-14T00:39:10;7.83;;;7.23;;
1078;SDS011;528;47.872;11.478;2022-08-14T00:41:40;7.30;;;6.67;;
1078;SDS011;528;47.872;11.478;2022-08-14T00:44:08;8.50;;;7.70;;
1078;SDS011;528;47.872;11.478;2022-08-14T00:47:08;7.60;;;7.00;;
1078;SDS011;528;47.872;11.478;2022-08-14T00:49:53;8.53;;;7.83;;
1078;SDS011;528;47.872;11.478;2022-08-14T00:52:24;7.83;;;7.23;;
1078;SDS011;528;47.872;11.478;2022-08-14T00:55:17;7.80;;;7.20;;
1078;SDS011;528;47.872;11.478;2022-08-14T00:58:26;8.10;;;7.50;;
1078;SDS011;528;47.872;11.478;2022-08-14T01:01:24;8.30;;;7.60;;
1078;SDS011;528;47.872;11.478;2022-08-14T01:04:33;8.10;;;7.50;;
1078;SDS011;528;47.872;11.478;2022-08-14T01:07:45;7.73;;;7.10;;
1078;SDS011;528;47.872;11.478;2022-08-14T01:10:52;8.47;;;7.77;;
1078;SDS011;528;47.872;11.478;2022-08-14T01:13:22;8.60;;;8.00;;
1078;SDS011;528;47.872;11.478;2022-08-14T01:15:54;8.73;;;8.03;;
1078;SDS011;528;47.872;11.478;2022-08-14T01:18:27;8.20;;;7.50;;
1078;SDS011;528;47.872;11.478;2022-08-14T01:21:12;7.90;;;7.30;;
1078;SDS011;528;47.872;11.478;2022-08-14T01:23:43;8.93;;;8.10;;
1078;SDS011;528;47.872;11.478;2022-08-14T01:26:13;8.20;;;7.60;;
1078;SDS011;528;47.872;11.478;2022-08-14T01:28:45;7.87;;;7.27;;
1078;SDS011;528;47.872;11.478;2022-08-14T01:31:30;7.80;;;7.23;;
1078;SDS011;528;47.872;11.478;2022-08-14T01:34:04;7.57;;;7.00;;
1078;SDS011;528;47.872;11.478;2022-08-14T01:36:33;7.50;;;6.80;;
1078;SDS011;528;47.872;11.478;2022-08-14T01:39:05;7.80;;;7.20;;
1078;SDS011;528;47.872;11.478;2022-08-14T01:41:34;7.67;;;7.07;;
1078;SDS011;528;47.872;11.478;2022-08-14T01:44:03;8.40;;;7.70;;
1078;SDS011;528;47.872;11.478;2022-08-14T01:46:37;7.73;;;7.10;;
1078;SDS011;528;47.872;11.478;2022-08-14T01:49:11;7.63;;;7.13;;
1078;SDS011;528;47.872;11.478;2022-08-14T01:51:40;7.90;;;7.20;;
1078;SDS011;528;47.872;11.478;2022-08-14T01:54:15;7.80;;;7.10;;
1078;SDS011;528;47.872;11.478;2022-08-14T01:56:47;8.80;;;8.00;;
1078;SDS011;528;47.872;11.478;2022-08-14T01:59:19;7.50;;;6.90;;
1078;SDS011;528;47.872;11.478;2022-08-14T02:01:49;7.87;;;7.27;;
1078;SDS011;528;47.872;11.478;2022-08-14T02:04:18;7.60;;;7.00;;
1078;SDS011;528;47.872;11.478;2022-08-14T02:06:47;12.53;;;7.53;;
1078;SDS011;528;47.872;11.478;2022-08-14T02:09:17;7.50;;;7.00;;
1078;SDS011;528;47.872;11.478;2022-08-14T02:11:46;8.53;;;7.83;;
1078;SDS011;528;47.872;11.478;2022-08-14T02:14:22;8.37;;;7.77;;
1078;SDS011;528;47.872;11.478;2022-08-14T02:16:50;8.90;;;8.00;;
1078;SDS011;528;47.872;11.478;2022-08-14T02:19:22;7.83;;;7.33;;
1078;SDS011;528;47.872;11.478;2022-08-14T02:21:55;7.73;;;7.03;;
1078;SDS011;528;47.872;11.478;2022-08-14T02:24:28;7.50;;;6.90;;
1078;SDS011;528;47.872;11.478;2022-08-14T02:27:01;8.03;;;7.37;;
1078;SDS011;528;47.872;11.478;2022-08-14T02:36:21;8.10;;;7.50;;
1078;SDS011;528;47.872;11.478;2022-08-14T03:51:43;7.37;;;6.77;;
1078;SDS011;528;47.872;11.478;2022-08-14T03:54:18;7.57;;;6.97;;
1078;SDS011;528;47.872;11.478;2022-08-14T03:56:56;8.30;;;7.50;;
1078;SDS011;528;47.872;11.478;2022-08-14T03:59:41;7.60;;;7.00;;
1078;SDS011;528;47.872;11.478;2022-08-14T04:02:14;8.70;;;8.00;;
1078;SDS011;528;47.872;11.478;2022-08-14T04:04:43;7.90;;;7.30;;
1078;SDS011;528;47.872;11.478;2022-08-14T04:07:22;7.97;;;7.37;;
1078;SDS011;528;47.872;11.478;2022-08-14T04:09:49;8.23;;;7.53;;
1078;SDS011;528;47.872;11.478;2022-08-14T04:12:19;8.70;;;7.90;;
1078;SDS011;528;47.872;11.478;2022-08-14T04:14:46;8.50;;;7.80;;
1078;SDS011;528;47.872;11.478;2022-08-14T04:17:14;8.30;;;7.70;;
1078;SDS011;528;47.872;11.478;2022-08-14T04:19:42;8.23;;;7.43;;
1078;SDS011;528;47.872;11.478;2022-08-14T04:22:09;7.37;;;6.77;;
1078;SDS011;528;47.872;11.478;2022-08-14T04:24:53;8.00;;;7.30;;
1078;SDS011;528;47.872;11.478;2022-08-14T04:27:20;7.77;;;7.27;;
1078;SDS011;528;47.872;11.478;2022-08-14T04:29:51;8.40;;;7.70;;
1078;SDS011;528;47.872;11.478;2022-08-14T04:32:21;7.90;;;7.20;;
1078;SDS011;528;47.872;11.478;2022-08-14T04:34:56;8.57;;;7.87;;
1078;SDS011;528;47.872;11.478;2022-08-14T04:37:25;7.90;;;7.30;;
1078;SDS011;528;47.872;11.478;2022-08-14T04:40:13;7.67;;;7.07;;
1078;SDS011;528;47.872;11.478;2022-08-14T04:43:05;8.10;;;7.30;;
1078;SDS011;528;47.872;11.478;2022-08-14T04:45:52;9.03;;;7.17;;
1078;SDS011;528;47.872;11.478;2022-08-14T04:48:19;7.93;;;7.23;;
1078;SDS011;528;47.872;11.478;2022-08-14T04:50:48;8.03;;;7.30;;
1078;SDS011;528;47.872;11.478;2022-08-14T04:53:19;7.83;;;7.23;;
1078;SDS011;528;47.872;11.478;2022-08-14T04:55:54;7.70;;;7.10;;
1078;SDS011;528;47.872;11.478;2022-08-14T04:58:24;8.33;;;7.63;;
1078;SDS011;528;47.872;11.478;2022-08-14T05:00:53;7.57;;;6.97;;
1078;SDS011;528;47.872;11.478;2022-08-14T05:03:23;7.33;;;6.83;;
1078;SDS011;528;47.872;11.478;2022-08-14T05:05:53;8.00;;;7.30;;
1078;SDS011;528;47.872;11.478;2022-08-14T05:08:22;7.00;;;6.50;;
1078;SDS011;528;47.872;11.478;2022-08-14T05:10:54;7.73;;;7.13;;
1078;SDS011;528;47.872;11.478;2022-08-14T05:13:24;7.77;;;7.07;;
1078;SDS011;528;47.872;11.478;2022-08-14T05:15:54;7.53;;;6.93;;
1078;SDS011;528;47.872;11.478;2022-08-14T05:18:24;7.47;;;6.87;;
1078;SDS011;528;47.872;11.478;2022-08-14T05:20:55;7.50;;;6.90;;
1078;SDS011;528;47.872;11.478;2022-08-14T05:23:25;8.47;;;7.67;;
1078;SDS011;528;47.872;11.478;2022-08-14T05:25:56;8.00;;;7.40;;
1078;SDS011;528;47.872;11.478;2022-08-14T05:28:26;7.23;;;6.63;;
1078;SDS011;528;47.872;11.478;2022-08-14T05:30:58;8.70;;;8.00;;
1078;SDS011;528;47.872;11.478;2022-08-14T05:33:27;7.73;;;7.17;;
1078;SDS011;528;47.872;11.478;2022-08-14T05:35:57;7.67;;;7.00;;
1078;SDS011;528;47.872;11.478;2022-08-14T05:38:27;7.50;;;6.90;;
1078;SDS011;528;47.872;11.478;2022-08-14T05:40:59;7.13;;;6.53;;
1078;SDS011;528;47.872;11.478;2022-08-14T05:43:27;7.20;;;6.60;;
1078;SDS011;528;47.872;11.478;2022-08-14T05:45:56;7.80;;;7.10;;
1078;SDS011;528;47.872;11.478;2022-08-14T05:48:24;7.70;;;7.10;;
1078;SDS011;528;47.872;11.478;2022-08-14T05:50:52;7.20;;;6.63;;
1078;SDS011;528;47.872;11.478;2022-08-14T05:53:20;7.43;;;6.90;;
1078;SDS011;528;47.872;11.478;2022-08-14T05:55:48;7.37;;;6.77;;
1078;SDS011;528;47.872;11.478;2022-08-14T05:58:17;7.23;;;6.73;;
1078;SDS011;528;47.872;11.478;2022-08-14T06:00:46;7.67;;;7.07;;
1078;SDS011;528;47.872;11.478;2022-08-14T06:03:14;8.00;;;7.40;;
1078;SDS011;528;47.872;11.478;2022-08-14T06:05:45;7.20;;;6.70;;
1078;SDS011;528;47.872;11.478;2022-08-14T06:08:15;7.53;;;6.93;;
1078;SDS011;528;47.872;11.478;2022-08-14T06:10:46;7.60;;;7.00;;
1078;SDS011;528;47.872;11.478;2022-08-14T06:13:13;7.50;;;6.90;;
1078;SDS011;528;47.872;11.478;2022-08-14T06:15:42;7.80;;;7.20;;
1078;SDS011;528;47.872;11.478;2022-08-14T06:18:10;7.47;;;6.87;;
1078;SDS011;528;47.872;11.478;2022-08-14T06:20:37;7.73;;;7.13;;
1078;SDS011;528;47.872;11.478;2022-08-14T06:23:05;7.27;;;6.77;;
1078;SDS011;528;47.872;11.478;2022-08-14T06:25:32;7.77;;;7.17;;
1078;SDS011;528;47.872;11.478;2022-08-14T06:28:02;6.70;;;6.20;;
1078;SDS011;528;47.872;11.478;2022-08-14T06:30:30;7.60;;;7.00;;
1078;SDS011;528;47.872;11.478;2022-08-14T06:33:00;6.50;;;6.00;;
1078;SDS011;528;47.872;11.478;2022-08-14T06:35:27;6.80;;;6.33;;
1078;SDS011;528;47.872;11.478;2022-08-14T06:37:56;7.23;;;6.70;;
1078;SDS011;528;47.872;11.478;2022-08-14T06:40:26;7.27;;;6.63;;
1078;SDS011;528;47.872;11.478;2022-08-14T06:42:57;7.57;;;6.87;;
1078;SDS011;528;47.872;11.478;2022-08-14T06:45:25;7.40;;;6.70;;
1078;SDS011;528;47.872;11.478;2022-08-14T06:47:53;7.17;;;6.57;;
1078;SDS011;528;47.872;11.478;2022-08-14T06:50:22;6.73;;;6.23;;
1078;SDS011;528;47.872;11.478;2022-08-14T06:52:52;6.90;;;6.40;;
1078;SDS011;528;47.872;11.478;2022-08-14T06:55:20;6.83;;;6.33;;
1078;SDS011;528;47.872;11.478;2022-08-14T06:57:48;6.13;;;5.73;;
1078;SDS011;528;47.872;11.478;2022-08-14T07:00:20;6.50;;;6.00;;
1078;SDS011;528;47.872;11.478;2022-08-14T07:02:50;6.40;;;5.80;;
1078;SDS011;528;47.872;11.478;2022-08-14T07:05:37;6.00;;;5.60;;
1078;SDS011;528;47.872;11.478;2022-08-14T07:08:11;6.10;;;5.70;;
1078;SDS011;528;47.872;11.478;2022-08-14T07:10:41;6.00;;;5.60;;
1078;SDS011;528;47.872;11.478;2022-08-14T07:13:10;5.97;;;5.57;;
1078;SDS011;528;47.872;11.478;2022-08-14T07:15:38;5.90;;;5.50;;
1078;SDS011;528;47.872;11.478;2022-08-14T07:18:07;5.60;;;5.20;;
1078;SDS011;528;47.872;11.478;2022-08-14T07:20:40;5.83;;;5.43;;
1078;SDS011;528;47.872;11.478;2022-08-14T07:23:08;5.20;;;4.90;;
1078;SDS011;528;47.872;11.478;2022-08-14T07:25:40;6.10;;;5.70;;
1078;SDS011;528;47.872;11.478;2022-08-14T07:28:10;6.10;;;5.70;;
1078;SDS011;528;47.872;11.478;2022-08-14T07:30:39;5.70;;;5.30;;
1078;SDS011;528;47.872;11.478;2022-08-14T07:33:07;5.13;;;4.70;;
1078;SDS011;528;47.872;11.478;2022-08-14T07:35:35;5.20;;;4.90;;
1078;SDS011;528;47.872;11.478;2022-08-14T07:38:05;6.03;;;5.53;;
1078;SDS011;528;47.872;11.478;2022-08-14T07:40:34;5.10;;;4.80;;
1078;SDS011;528;47.872;11.478;2022-08-14T07:43:01;5.43;;;5.13;;
1078;SDS011;528;47.872;11.478;2022-08-14T07:45:29;6.03;;;5.50;;
1078;SDS011;528;47.872;11.478;2022-08-14T07:47:56;5.30;;;5.00;;
1078;SDS011;528;47.872;11.478;2022-08-14T07:50:23;5.00;;;4.70;;
1078;SDS011;528;47.872;11.478;2022-08-14T07:52:53;5.03;;;4.73;;
1078;SDS011;528;47.872;11.478;2022-08-14T07:55:24;4.83;;;4.53;;
1078;SDS011;528;47.872;11.478;2022-08-14T07:57:55;4.90;;;4.50;;
1078;SDS011;528;47.872;11.478;2022-08-14T08:00:33;5.60;;;5.10;;
1078;SDS011;528;47.872;11.478;2022-08-14T08:03:02;5.37;;;5.07;;
1078;SDS011;528;47.872;11.478;2022-08-14T08:05:47;5.00;;;4.70;;
1078;SDS011;528;47.872;11.478;2022-08-14T08:08:16;4.90;;;4.60;;
1078;SDS011;528;47.872;11.478;2022-08-14T08:10:45;5.20;;;4.90;;
1078;SDS011;528;47.872;11.478;2022-08-14T08:13:14;5.00;;;4.70;;
1078;SDS011;528;47.872;11.478;2022-08-14T08:15:43;4.70;;;4.40;;
1078;SDS011;528;47.872;11.478;2022-08-14T08:18:13;4.60;;;4.30;;
1078;SDS011;528;47.872;11.478;2022-08-14T08:20:42;5.27;;;4.87;;
1078;SDS011;528;47.872;11.478;2022-08-14T08:23:12;4.83;;;4.47;;
1078;SDS011;528;47.872;11.478;2022-08-14T08:25:43;4.53;;;4.23;;
1078;SDS011;528;47.872;11.478;2022-08-14T08:28:12;5.20;;;4.90;;
1078;SDS011;528;47.872;11.478;2022-08-14T08:30:41;4.10;;;3.90;;
1078;SDS011;528;47.872;11.478;2022-08-14T08:33:13;4.47;;;4.17;;
1078;SDS011;528;47.872;11.478;2022-08-14T08:35:41;4.30;;;4.00;;
1078;SDS011;528;47.872;11.478;2022-08-14T08:38:10;3.90;;;3.70;;
1078;SDS011;528;47.872;11.478;2022-08-14T08:40:43;3.87;;;3.67;;
1078;SDS011;528;47.872;11.478;2022-08-14T08:43:16;3.87;;;3.67;;
1078;SDS011;528;47.872;11.478;2022-08-14T08:45:51;3.80;;;3.60;;
1078;SDS011;528;47.872;11.478;2022-08-14T08:48:21;4.03;;;3.80;;
1078;SDS011;528;47.872;11.478;2022-08-14T08:50:53;3.50;;;3.30;;
1078;SDS011;528;47.872;11.478;2022-08-14T08:53:21;3.83;;;3.53;;
1078;SDS011;528;47.872;11.478;2022-08-14T08:55:50;3.80;;;3.50;;
1078;SDS011;528;47.872;11.478;2022-08-14T08:58:17;3.50;;;3.30;;
1078;SDS011;528;47.872;11.478;2022-08-14T09:00:46;3.90;;;3.63;;
1078;SDS011;528;47.872;11.478;2022-08-14T09:03:19;3.70;;;3.40;;
1078;SDS011;528;47.872;11.478;2022-08-14T09:05:49;3.63;;;3.43;;
1078;SDS011;528;47.872;11.478;2022-08-14T09:08:19;3.47;;;3.27;;
1078;SDS011;528;47.872;11.478;2022-08-14T09:10:51;3.60;;;3.40;;
1078;SDS011;528;47.872;11.478;2022-08-14T09:13:19;3.60;;;3.40;;
1078;SDS011;528;47.872;11.478;2022-08-14T09:15:50;4.30;;;3.90;;
1078;SDS011;528;47.872;11.478;2022-08-14T09:18:20;5.97;;;4.00;;
1078;SDS011;528;47.872;11.478;2022-08-14T09:20:48;4.07;;;3.67;;
1078;SDS011;528;47.872;11.478;2022-08-14T09:23:17;3.80;;;3.50;;
1078;SDS011;528;47.872;11.478;2022-08-14T09:25:46;3.87;;;3.67;;
1078;SDS011;528;47.872;11.478;2022-08-14T09:28:16;3.67;;;3.47;;
1078;SDS011;528;47.872;11.478;2022-08-14T09:30:51;3.67;;;3.47;;
1078;SDS011;528;47.872;11.478;2022-08-14T09:33:25;4.63;;;3.67;;
1078;SDS011;528;47.872;11.478;2022-08-14T09:39:12;4.23;;;3.93;;
1078;SDS011;528;47.872;11.478;2022-08-14T09:42:05;4.40;;;4.10;;
1078;SDS011;528;47.872;11.478;2022-08-14T09:44:46;4.40;;;4.00;;
1078;SDS011;528;47.872;11.478;2022-08-14T09:47:39;3.70;;;3.50;;
1078;SDS011;528;47.872;11.478;2022-08-14T09:50:14;4.30;;;4.07;;
1078;SDS011;528;47.872;11.478;2022-08-14T09:52:45;3.63;;;3.43;;
1078;SDS011;528;47.872;11.478;2022-08-14T09:55:16;4.13;;;3.93;;
1078;SDS011;528;47.872;11.478;2022-08-14T09:57:50;4.50;;;4.27;;
1078;SDS011;528;47.872;11.478;2022-08-14T10:00:21;3.87;;;3.67;;
1078;SDS011;528;47.872;11.478;2022-08-14T10:03:06;4.13;;;3.83;;
1078;SDS011;528;47.872;11.478;2022-08-14T10:05:34;4.10;;;3.90;;
1078;SDS011;528;47.872;11.478;2022-08-14T10:08:03;3.83;;;3.63;;
1078;SDS011;528;47.872;11.478;2022-08-14T10:10:32;4.10;;;3.90;;
1078;SDS011;528;47.872;11.478;2022-08-14T10:13:00;3.70;;;3.50;;
1078;SDS011;528;47.872;11.478;2022-08-14T10:15:31;4.17;;;3.93;;
1078;SDS011;528;47.872;11.478;2022-08-14T10:18:03;4.30;;;4.00;;
1078;SDS011;528;47.872;11.478;2022-08-14T10:20:34;3.70;;;3.50;;
1078;SDS011;528;47.872;11.478;2022-08-14T10:23:12;3.73;;;3.53;;
1078;SDS011;528;47.872;11.478;2022-08-14T10:25:42;4.20;;;3.90;;
1078;SDS011;528;47.872;11.478;2022-08-14T10:28:10;4.30;;;4.00;;
1078;SDS011;528;47.872;11.478;2022-08-14T10:30:42;4.00;;;3.73;;
1078;SDS011;528;47.872;11.478;2022-08-14T10:33:23;3.50;;;3.30;;
1078;SDS011;528;47.872;11.478;2022-08-14T10:35:53;3.80;;;3.60;;
1078;SDS011;528;47.872;11.478;2022-08-14T10:38:26;3.60;;;3.30;;
1078;SDS011;528;47.872;11.478;2022-08-14T10:41:08;3.93;;;3.70;;
1078;SDS011;528;47.872;11.478;2022-08-14T10:44:03;4.10;;;3.80;;
1078;SDS011;528;47.872;11.478;2022-08-14T10:49:27;4.13;;;3.83;;
1078;SDS011;528;47.872;11.478;2022-08-14T10:51:58;3.90;;;3.70;;
1078;SDS011;528;47.872;11.478;2022-08-14T10:54:31;3.77;;;3.57;;
1078;SDS011;528;47.872;11.478;2022-08-14T10:59:47;4.73;;;4.30;;
1078;SDS011;528;47.872;11.478;2022-08-14T11:02:24;4.10;;;3.90;;
1078;SDS011;528;47.872;11.478;2022-08-14T11:04:56;4.03;;;3.70;;
1078;SDS011;528;47.872;11.478;2022-08-14T11:07:35;3.93;;;3.67;;
1078;SDS011;528;47.872;11.478;2022-08-14T11:10:07;4.13;;;3.93;;
1078;SDS011;528;47.872;11.478;2022-08-14T11:12:45;3.90;;;3.70;;
1078;SDS011;528;47.872;11.478;2022-08-14T11:15:17;4.63;;;3.47;;
1078;SDS011;528;47.872;11.478;2022-08-14T11:17:47;3.90;;;3.60;;
1078;SDS011;528;47.872;11.478;2022-08-14T11:20:20;4.07;;;3.73;;
1078;SDS011;528;47.872;11.478;2022-08-14T11:22:50;3.90;;;3.70;;
1078;SDS011;528;47.872;11.478;2022-08-14T11:25:19;3.73;;;3.53;;
1078;SDS011;528;47.872;11.478;2022-08-14T11:27:52;3.63;;;3.43;;
1078;SDS011;528;47.872;11.478;2022-08-14T11:30:30;3.67;;;3.47;;
1078;SDS011;528;47.872;11.478;2022-08-14T11:33:10;3.80;;;3.60;;
1078;SDS011;528;47.872;11.478;2022-08-14T11:35:39;3.97;;;3.77;;
1078;SDS011;528;47.872;11.478;2022-08-14T11:38:10;3.80;;;3.60;;
1078;SDS011;528;47.872;11.478;2022-08-14T11:40:38;3.70;;;3.50;;
1078;SDS011;528;47.872;11.478;2022-08-14T11:43:07;3.70;;;3.50;;
1078;SDS011;528;47.872;11.478;2022-08-14T11:45:37;3.70;;;3.50;;
1078;SDS011;528;47.872;11.478;2022-08-14T11:48:18;3.70;;;3.50;;
1078;SDS011;528;47.872;11.478;2022-08-14T11:50:48;3.60;;;3.40;;
1078;SDS011;528;47.872;11.478;2022-08-14T11:53:40;3.83;;;3.53;;
1078;SDS011;528;47.872;11.478;2022-08-14T11:56:08;3.97;;;3.67;;
1078;SDS011;528;47.872;11.478;2022-08-14T11:58:48;3.60;;;3.40;;
1078;SDS011;528;47.872;11.478;2022-08-14T12:01:17;3.50;;;3.30;;
1078;SDS011;528;47.872;11.478;2022-08-14T12:04:06;3.57;;;3.37;;
1078;SDS011;528;47.872;11.478;2022-08-14T12:06:50;3.90;;;3.70;;
1078;SDS011;528;47.872;11.478;2022-08-14T12:09:30;3.87;;;3.67;;
1078;SDS011;528;47.872;11.478;2022-08-14T12:12:12;3.30;;;3.20;;
1078;SDS011;528;47.872;11.478;2022-08-14T12:14:50;3.40;;;3.20;;
1078;SDS011;528;47.872;11.478;2022-08-14T12:17:21;3.87;;;3.47;;
1078;SDS011;528;47.872;11.478;2022-08-14T12:19:53;3.30;;;3.10;;
1078;SDS011;528;47.872;11.478;2022-08-14T12:22:32;3.43;;;3.33;;
1078;SDS011;528;47.872;11.478;2022-08-14T12:25:01;2.90;;;2.80;;
1078;SDS011;528;47.872;11.478;2022-08-14T12:27:36;3.30;;;3.10;;
1078;SDS011;528;47.872;11.478;2022-08-14T12:30:07;3.00;;;2.90;;
1078;SDS011;528;47.872;11.478;2022-08-14T12:32:39;3.60;;;3.30;;
1078;SDS011;528;47.872;11.478;2022-08-14T12:35:09;2.97;;;2.87;;
1078;SDS011;528;47.872;11.478;2022-08-14T12:37:37;3.20;;;3.00;;
1078;SDS011;528;47.872;11.478;2022-08-14T12:40:07;3.47;;;3.27;;
1078;SDS011;528;47.872;11.478;2022-08-14T12:42:37;3.83;;;3.40;;
1078;SDS011;528;47.872;11.478;2022-08-14T13:21:34;3.97;;;3.67;;
1078;SDS011;528;47.872;11.478;2022-08-14T13:24:11;3.67;;;3.47;;
1078;SDS011;528;47.872;11.478;2022-08-14T13:29:32;3.80;;;3.60;;
1078;SDS011;528;47.872;11.478;2022-08-14T13:32:22;4.07;;;3.77;;
1078;SDS011;528;47.872;11.478;2022-08-14T13:34:51;4.17;;;3.90;;
1078;SDS011;528;47.872;11.478;2022-08-14T13:37:27;5.43;;;4.07;;
1078;SDS011;528;47.872;11.478;2022-08-14T13:39:56;4.30;;;4.00;;
1078;SDS011;528;47.872;11.478;2022-08-14T13:42:27;4.27;;;4.07;;
1078;SDS011;528;47.872;11.478;2022-08-14T13:44:56;3.80;;;3.60;;
1078;SDS011;528;47.872;11.478;2022-08-14T13:47:31;3.70;;;3.50;;
1078;SDS011;528;47.872;11.478;2022-08-14T13:50:00;4.20;;;3.90;;
1078;SDS011;528;47.872;11.478;2022-08-14T13:52:40;4.07;;;3.77;;
1078;SDS011;528;47.872;11.478;2022-08-14T13:55:08;3.93;;;3.73;;
1078;SDS011;528;47.872;11.478;2022-08-14T13:57:50;3.40;;;3.20;;
1078;SDS011;528;47.872;11.478;2022-08-14T14:00:34;3.80;;;3.60;;
1078;SDS011;528;47.872;11.478;2022-08-14T14:03:08;3.70;;;3.50;;
1078;SDS011;528;47.872;11.478;2022-08-14T14:05:58;3.60;;;3.40;;
1078;SDS011;528;47.872;11.478;2022-08-14T14:11:42;4.30;;;3.77;;
1078;SDS011;528;47.872;11.478;2022-08-14T14:17:17;3.40;;;3.20;;
1078;SDS011;528;47.872;11.478;2022-08-14T14:19:50;4.00;;;3.80;;
1078;SDS011;528;47.872;11.478;2022-08-14T14:22:32;3.97;;;3.77;;
1078;SDS011;528;47.872;11.478;2022-08-14T14:25:02;3.90;;;3.70;;
1078;SDS011;528;47.872;11.478;2022-08-14T14:27:36;3.70;;;3.40;;
1078;SDS011;528;47.872;11.478;2022-08-14T14:30:14;3.60;;;3.40;;
1078;SDS011;528;47.872;11.478;2022-08-14T14:32:59;3.80;;;3.60;;
1078;SDS011;528;47.872;11.478;2022-08-14T14:38:25;4.03;;;3.83;;
1078;SDS011;528;47.872;11.478;2022-08-14T14:40:59;3.50;;;3.30;;
1078;SDS011;528;47.872;11.478;2022-08-14T14:43:46;3.63;;;3.37;;
1078;SDS011;528;47.872;11.478;2022-08-14T14:46:17;3.70;;;3.50;;
1078;SDS011;528;47.872;11.478;2022-08-14T14:48:48;3.63;;;3.40;;
1078;SDS011;528;47.872;11.478;2022-08-14T14:51:17;3.70;;;3.50;;
1078;SDS011;528;47.872;11.478;2022-08-14T14:53:46;3.67;;;3.47;;
1078;SDS011;528;47.872;11.478;2022-08-14T14:56:13;3.70;;;3.50;;
1078;SDS011;528;47.872;11.478;2022-08-14T14:58:41;3.67;;;3.47;;
1078;SDS011;528;47.872;11.478;2022-08-14T15:01:10;3.60;;;3.40;;
1078;SDS011;528;47.872;11.478;2022-08-14T15:03:38;3.97;;;3.67;;
1078;SDS011;528;47.872;11.478;2022-08-14T15:06:10;3.53;;;3.33;;
1078;SDS011;528;47.872;11.478;2022-08-14T15:08:37;3.90;;;3.70;;
1078;SDS011;528;47.872;11.478;2022-08-14T15:11:05;3.60;;;3.40;;
1078;SDS011;528;47.872;11.478;2022-08-14T15:13:33;4.03;;;3.77;;
1078;SDS011;528;47.872;11.478;2022-08-14T15:16:02;3.97;;;3.77;;
1078;SDS011;528;47.872;11.478;2022-08-14T15:18:31;4.23;;;4.03;;
1078;SDS011;528;47.872;11.478;2022-08-14T15:21:00;3.77;;;3.57;;
1078;SDS011;528;47.872;11.478;2022-08-14T15:23:27;3.80;;;3.50;;
1078;SDS011;528;47.872;11.478;2022-08-14T15:25:55;3.80;;;3.60;;
1078;SDS011;528;47.872;11.478;2022-08-14T15:28:23;4.33;;;4.00;;
1078;SDS011;528;47.872;11.478;2022-08-14T15:30:50;4.10;;;3.90;;
1078;SDS011;528;47.872;11.478;2022-08-14T15:33:18;4.90;;;4.60;;
1078;SDS011;528;47.872;11.478;2022-08-14T15:36:08;4.00;;;3.63;;
1078;SDS011;528;47.872;11.478;2022-08-14T15:38:35;3.97;;;3.67;;
1078;SDS011;528;47.872;11.478;2022-08-14T15:41:04;3.70;;;3.50;;
1078;SDS011;528;47.872;11.478;2022-08-14T15:43:31;5.10;;;4.20;;
1078;SDS011;528;47.872;11.478;2022-08-14T15:46:03;4.27;;;3.90;;
1078;SDS011;528;47.872;11.478;2022-08-14T15:48:33;3.80;;;3.50;;
1078;SDS011;528;47.872;11.478;2022-08-14T15:51:01;3.73;;;3.43;;
1078;SDS011;528;47.872;11.478;2022-08-14T15:53:30;5.80;;;3.70;;
1078;SDS011;528;47.872;11.478;2022-08-14T15:55:58;5.07;;;3.73;;
1078;SDS011;528;47.872;11.478;2022-08-14T15:58:30;3.27;;;3.07;;
1078;SDS011;528;47.872;11.478;2022-08-14T16:00:57;3.90;;;3.47;;
1078;SDS011;528;47.872;11.478;2022-08-14T16:03:42;3.60;;;3.40;;
1078;SDS011;528;47.872;11.478;2022-08-14T16:06:12;3.83;;;3.53;;
1078;SDS011;528;47.872;11.478;2022-08-14T16:08:43;3.80;;;3.50;;
1078;SDS011;528;47.872;11.478;2022-08-14T16:11:11;3.50;;;3.30;;
1078;SDS011;528;47.872;11.478;2022-08-14T16:13:39;3.97;;;3.70;;
1078;SDS011;528;47.872;11.478;2022-08-14T16:16:18;4.20;;;3.90;;
1078;SDS011;528;47.872;11.478;2022-08-14T16:18:47;4.00;;;3.80;;
1078;SDS011;528;47.872;11.478;2022-08-14T16:21:17;3.80;;;3.60;;
1078;SDS011;528;47.872;11.478;2022-08-14T16:23:47;4.47;;;3.80;;
1078;SDS011;528;47.872;11.478;2022-08-14T16:26:17;4.40;;;3.40;;
1078;SDS011;528;47.872;11.478;2022-08-14T16:28:47;3.60;;;3.40;;
1078;SDS011;528;47.872;11.478;2022-08-14T16:31:16;3.43;;;3.20;;
1078;SDS011;528;47.872;11.478;2022-08-14T16:33:45;5.07;;;3.53;;
1078;SDS011;528;47.872;11.478;2022-08-14T16:36:14;3.93;;;3.73;;
1078;SDS011;528;47.872;11.478;2022-08-14T16:38:48;3.90;;;3.60;;
1078;SDS011;528;47.872;11.478;2022-08-14T16:41:20;4.00;;;3.70;;
1078;SDS011;528;47.872;11.478;2022-08-14T16:43:58;3.50;;;3.30;;
1078;SDS011;528;47.872;11.478;2022-08-14T16:46:28;3.50;;;3.30;;
1078;SDS011;528;47.872;11.478;2022-08-14T16:48:59;4.00;;;3.80;;
1078;SDS011;528;47.872;11.478;2022-08-14T16:51:27;4.17;;;3.97;;
1078;SDS011;528;47.872;11.478;2022-08-14T16:53:58;4.03;;;3.83;;
1078;SDS011;528;47.872;11.478;2022-08-14T16:56:27;4.47;;;4.20;;
1078;SDS011;528;47.872;11.478;2022-08-14T16:59:06;3.90;;;3.60;;
1078;SDS011;528;47.872;11.478;2022-08-14T17:01:35;4.03;;;3.73;;
1078;SDS011;528;47.872;11.478;2022-08-14T17:04:07;4.77;;;4.47;;
1078;SDS011;528;47.872;11.478;2022-08-14T17:06:44;4.77;;;4.03;;
1078;SDS011;528;47.872;11.478;2022-08-14T17:09:29;3.80;;;3.60;;
1078;SDS011;528;47.872;11.478;2022-08-14T17:12:00;4.93;;;4.53;;
1078;SDS011;528;47.872;11.478;2022-08-14T17:20:19;6.47;;;4.10;;
1078;SDS011;528;47.872;11.478;2022-08-14T17:22:50;3.90;;;3.70;;
1078;SDS011;528;47.872;11.478;2022-08-14T17:25:20;4.53;;;4.03;;
1078;SDS011;528;47.872;11.478;2022-08-14T17:30:46;4.97;;;4.57;;
1078;SDS011;528;47.872;11.478;2022-08-14T17:33:19;4.43;;;4.13;;
1078;SDS011;528;47.872;11.478;2022-08-14T17:35:47;5.10;;;4.80;;
1078;SDS011;528;47.872;11.478;2022-08-14T18:07:08;3.80;;;3.60;;
1078;SDS011;528;47.872;11.478;2022-08-14T18:09:43;4.00;;;3.80;;
1078;SDS011;528;47.872;11.478;2022-08-14T18:12:13;4.00;;;3.70;;
1078;SDS011;528;47.872;11.478;2022-08-14T18:14:42;4.20;;;3.90;;
1078;SDS011;528;47.872;11.478;2022-08-14T18:17:19;4.47;;;4.17;;
1078;SDS011;528;47.872;11.478;2022-08-14T18:19:47;4.40;;;4.10;;
1078;SDS011;528;47.872;11.478;2022-08-14T18:22:19;4.40;;;4.10;;
1078;SDS011;528;47.872;11.478;2022-08-14T18:27:22;5.07;;;4.63;;
1078;SDS011;528;47.872;11.478;2022-08-14T18:29:58;5.30;;;4.90;;
1078;SDS011;528;47.872;11.478;2022-08-14T18:32:37;4.47;;;4.17;;
1078;SDS011;528;47.872;11.478;2022-08-14T18:35:18;4.70;;;4.40;;
1078;SDS011;528;47.872;11.478;2022-08-14T18:37:48;4.50;;;4.10;;
1078;SDS011;528;47.872;11.478;2022-08-14T18:40:27;4.50;;;4.20;;
1078;SDS011;528;47.872;11.478;2022-08-14T18:42:57;4.50;;;4.20;;
1078;SDS011;528;47.872;11.478;2022-08-14T18:45:26;5.00;;;4.70;;